Time;durP1;ratioP1;P1;durP2;ratioP2;P2;SDS_P1;SDS_P2;PMS_P1;PMS_P2;Temp;Humidity;BMP_temperature;BMP_pressure;BME280_temperature;BME280_humidity;BME280_pressure;Samples;Min_cycle;Max_cycle;Signal;HPM_P1;HPM_P2
2022/01/29 00:00:54;;;;;;;29.25;12.60;;;7.70;99.90;;;;;;5033086;28;20063;-37
2022/01/29 00:03:21;;;;;;;40.93;14.37;;;7.80;99.90;;;;;;5033308;28;20048;-34
2022/01/29 00:05:46;;;;;;;35.90;13.93;;;7.80;99.90;;;;;;5031748;28;20036;-36
2022/01/29 00:08:12;;;;;;;40.25;13.82;;;7.80;99.90;;;;;;5032928;28;20025;-32
2022/01/29 00:10:38;;;;;;;35.67;13.82;;;7.80;99.90;;;;;;5033082;28;20532;-30
2022/01/29 00:13:04;;;;;;;32.90;14.77;;;7.80;99.90;;;;;;5033094;28;20478;-35
2022/01/29 00:15:29;;;;;;;32.95;13.73;;;7.80;99.90;;;;;;5032730;28;20422;-38
2022/01/29 00:17:55;;;;;;;35.58;15.52;;;7.80;99.90;;;;;;5033039;28;20064;-40
2022/01/29 00:20:20;;;;;;;29.27;12.75;;;7.80;99.90;;;;;;5033099;28;20029;-32
2022/01/29 00:22:46;;;;;;;43.95;13.82;;;7.80;99.90;;;;;;5032922;28;20072;-33
2022/01/29 00:25:12;;;;;;;33.30;14.07;;;7.80;99.90;;;;;;5032969;28;20445;-31
2022/01/29 00:27:39;;;;;;;41.53;14.77;;;7.70;99.90;;;;;;5031900;28;20444;-44
2022/01/29 00:30:09;;;;;;;34.20;14.93;;;7.60;99.90;;;;;;5033078;28;20036;-36
2022/01/29 00:32:35;;;;;;;44.55;14.75;;;7.70;99.90;;;;;;5033102;28;20025;-32
2022/01/29 00:35:01;;;;;;;35.83;14.63;;;7.70;99.90;;;;;;5032699;28;20104;-33
2022/01/29 00:37:26;;;;;;;35.65;14.93;;;7.60;99.90;;;;;;5033049;28;20486;-33
2022/01/29 00:39:52;;;;;;;42.05;13.80;;;7.60;99.90;;;;;;5032697;28;20026;-33
2022/01/29 00:42:18;;;;;;;39.70;15.85;;;7.60;99.90;;;;;;5032736;28;20018;-36
2022/01/29 00:44:45;;;;;;;31.13;14.05;;;7.50;99.90;;;;;;5032889;28;20033;-32
2022/01/29 00:47:12;;;;;;;40.80;13.88;;;7.50;99.90;;;;;;5032883;28;20385;-32
2022/01/29 00:49:38;;;;;;;34.58;13.57;;;7.60;99.90;;;;;;5032440;28;20486;-37
2022/01/29 00:52:03;;;;;;;39.80;15.05;;;7.60;99.90;;;;;;5032586;28;20064;-30
2022/01/29 00:54:29;;;;;;;40.08;14.65;;;7.60;99.90;;;;;;5032445;28;20504;-33
2022/01/29 00:56:55;;;;;;;36.13;14.13;;;7.60;99.90;;;;;;5032553;28;20022;-34
2022/01/29 00:59:21;;;;;;;30.70;12.27;;;7.60;99.90;;;;;;5032292;28;20402;-31
2022/01/29 01:01:46;;;;;;;38.45;14.25;;;7.60;99.90;;;;;;5032639;28;20021;-34
2022/01/29 01:04:12;;;;;;;26.13;12.05;;;7.60;99.90;;;;;;5032372;28;20032;-31
2022/01/29 01:06:37;;;;;;;45.20;13.98;;;7.50;99.90;;;;;;5032452;28;20028;-32
2022/01/29 01:09:03;;;;;;;30.70;11.75;;;7.60;99.90;;;;;;5032675;28;20056;-34
2022/01/29 01:11:29;;;;;;;33.30;12.48;;;7.60;99.90;;;;;;5032427;28;20100;-40
2022/01/29 01:13:54;;;;;;;35.22;13.38;;;7.70;99.90;;;;;;5032464;28;20026;-33
2022/01/29 01:16:20;;;;;;;32.00;12.20;;;7.60;99.90;;;;;;5031209;28;20018;-34
2022/01/29 01:18:46;;;;;;;23.60;11.60;;;7.70;99.90;;;;;;5032369;28;20025;-35
2022/01/29 01:21:12;;;;;;;29.58;12.57;;;7.70;99.90;;;;;;5032585;28;20022;-35
2022/01/29 01:23:37;;;;;;;35.33;11.73;;;7.70;99.90;;;;;;5032322;28;20021;-41
2022/01/29 01:26:04;;;;;;;35.10;12.23;;;7.70;99.90;;;;;;5032373;28;20456;-34
2022/01/29 01:28:30;;;;;;;25.58;11.32;;;7.70;99.90;;;;;;5035125;28;20025;-33
2022/01/29 01:30:56;;;;;;;30.35;10.18;;;7.70;99.90;;;;;;5036036;28;20064;-34
2022/01/29 01:33:21;;;;;;;20.38;9.32;;;7.80;99.90;;;;;;5036228;28;20492;-37
2022/01/29 01:35:51;;;;;;;27.08;10.15;;;7.80;99.90;;;;;;5034646;28;20052;-35
2022/01/29 01:40:51;;;;;;;29.45;10.73;;;7.90;99.90;;;;;;5036182;28;20029;-31
2022/01/29 01:43:16;;;;;;;22.67;9.70;;;7.80;99.90;;;;;;5036108;28;20474;-35
2022/01/29 01:45:43;;;;;;;24.40;10.05;;;7.80;99.90;;;;;;5035794;28;20075;-37
2022/01/29 01:48:09;;;;;;;28.38;9.85;;;7.80;99.90;;;;;;5035863;28;20025;-31
2022/01/29 01:50:36;;;;;;;23.35;10.15;;;7.90;99.90;;;;;;5035771;28;20036;-32
2022/01/29 01:53:04;;;;;;;26.55;9.93;;;7.90;99.90;;;;;;5035683;28;20052;-31
2022/01/29 01:55:31;;;;;;;19.13;9.75;;;7.90;99.90;;;;;;5035482;28;20044;-30
2022/01/29 01:57:57;;;;;;;24.08;10.70;;;7.90;99.90;;;;;;5034242;28;20124;-37
2022/01/29 02:00:24;;;;;;;23.08;9.90;;;7.90;99.90;;;;;;5035558;28;20036;-39
2022/01/29 02:02:50;;;;;;;21.02;10.05;;;7.90;99.90;;;;;;5034997;28;20478;-35
2022/01/29 02:05:16;;;;;;;30.63;9.63;;;7.90;99.90;;;;;;5035749;28;20047;-37
2022/01/29 02:07:42;;;;;;;19.60;9.38;;;8.00;99.90;;;;;;5034602;28;20648;-33
2022/01/29 02:10:10;;;;;;;22.92;10.90;;;8.00;99.90;;;;;;5034227;28;20536;-34
2022/01/29 02:12:46;;;;;;;17.45;8.88;;;8.00;99.90;;;;;;5035152;28;20025;-32
2022/01/29 02:15:12;;;;;;;17.73;9.07;;;8.00;99.90;;;;;;5035215;28;20029;-36
2022/01/29 02:17:38;;;;;;;27.77;9.77;;;8.00;99.90;;;;;;5035445;28;20429;-34
2022/01/29 02:20:04;;;;;;;20.48;9.70;;;8.10;99.90;;;;;;5035167;28;20018;-33
2022/01/29 02:22:30;;;;;;;21.42;9.20;;;8.10;99.90;;;;;;5035107;28;20036;-36
2022/01/29 02:24:55;;;;;;;18.88;8.98;;;8.10;99.90;;;;;;5035122;28;20513;-34
2022/01/29 02:27:21;;;;;;;25.25;9.52;;;8.20;99.90;;;;;;5035022;28;20029;-31
2022/01/29 02:29:49;;;;;;;16.27;9.07;;;8.20;99.90;;;;;;5034991;28;20029;-30
2022/01/29 02:32:14;;;;;;;16.40;8.50;;;8.20;99.90;;;;;;5035188;28;20025;-43
2022/01/29 02:34:43;;;;;;;20.45;8.27;;;8.20;99.90;;;;;;5034834;28;20021;-35
2022/01/29 02:37:08;;;;;;;14.60;8.32;;;8.20;99.90;;;;;;5034861;28;20032;-35
2022/01/29 02:39:35;;;;;;;16.35;8.02;;;8.30;99.90;;;;;;5034926;28;20021;-35
2022/01/29 02:42:00;;;;;;;17.70;8.77;;;8.30;99.90;;;;;;5034972;28;20478;-32
2022/01/29 02:44:26;;;;;;;17.30;9.32;;;8.30;99.90;;;;;;5034771;28;20033;-31
2022/01/29 02:46:56;;;;;;;16.25;8.75;;;8.30;99.90;;;;;;5033986;28;20045;-31
2022/01/29 02:49:24;;;;;;;25.15;9.98;;;8.30;99.90;;;;;;5034849;28;20026;-37
2022/01/29 02:51:55;;;;;;;21.30;9.43;;;8.30;99.90;;;;;;5034534;28;20033;-40
2022/01/29 02:54:22;;;;;;;16.50;8.00;;;8.40;99.90;;;;;;5034517;28;20155;-40
2022/01/29 02:56:47;;;;;;;16.70;9.10;;;8.40;99.90;;;;;;5034440;28;20071;-33
2022/01/29 02:59:13;;;;;;;12.00;7.47;;;8.40;99.90;;;;;;5034563;28;20104;-33
2022/01/29 03:01:40;;;;;;;26.77;8.75;;;8.40;99.90;;;;;;5034712;28;20135;-32
2022/01/29 03:04:06;;;;;;;18.95;8.30;;;8.50;99.90;;;;;;5034533;28;20032;-37
2022/01/29 03:06:31;;;;;;;15.00;8.20;;;8.50;99.90;;;;;;5034315;28;20036;-39
2022/01/29 03:08:57;;;;;;;16.80;8.52;;;8.50;99.90;;;;;;5034288;28;20025;-37
2022/01/29 03:11:23;;;;;;;21.98;9.13;;;8.50;99.90;;;;;;5034201;28;20014;-33
2022/01/29 03:13:49;;;;;;;24.20;8.38;;;8.60;99.90;;;;;;5034189;28;20065;-34
2022/01/29 03:16:16;;;;;;;12.38;7.32;;;8.60;99.90;;;;;;5034122;28;20486;-32
2022/01/29 03:18:41;;;;;;;16.23;8.82;;;8.60;99.90;;;;;;5034018;28;20021;-36
2022/01/29 03:21:07;;;;;;;18.83;8.13;;;8.60;99.90;;;;;;5034144;28;20018;-39
2022/01/29 03:23:33;;;;;;;17.13;7.18;;;8.70;99.90;;;;;;5033992;28;20018;-36
2022/01/29 03:25:58;;;;;;;27.58;9.25;;;8.60;99.90;;;;;;5033934;28;20026;-37
2022/01/29 03:28:24;;;;;;;18.67;8.75;;;8.60;99.90;;;;;;5033937;28;20025;-32
2022/01/29 03:30:49;;;;;;;24.35;9.88;;;8.70;99.90;;;;;;5033776;28;20029;-41
2022/01/29 03:33:15;;;;;;;18.55;8.57;;;8.70;99.90;;;;;;5033757;28;20099;-38
2022/01/29 03:35:41;;;;;;;16.63;8.95;;;8.70;99.90;;;;;;5033630;28;20028;-33
2022/01/29 03:38:06;;;;;;;22.80;9.20;;;8.70;99.90;;;;;;5033708;28;20414;-30
2022/01/29 03:40:33;;;;;;;23.92;9.23;;;8.80;99.90;;;;;;5033955;28;20100;-31
2022/01/29 03:43:06;;;;;;;22.90;10.05;;;8.80;99.90;;;;;;5033876;28;20032;-33
2022/01/29 03:45:32;;;;;;;18.88;8.68;;;8.80;99.90;;;;;;5033850;28;20026;-31
2022/01/29 03:47:58;;;;;;;16.05;7.85;;;8.90;99.90;;;;;;5033565;28;20100;-32
2022/01/29 03:50:24;;;;;;;14.27;7.25;;;8.80;99.90;;;;;;5033160;28;20104;-31
2022/01/29 03:52:49;;;;;;;20.27;7.80;;;8.90;99.90;;;;;;5033446;28;20549;-33
2022/01/29 03:55:15;;;;;;;24.25;8.88;;;8.90;99.90;;;;;;5033341;28;20026;-32
2022/01/29 03:57:40;;;;;;;19.30;7.88;;;8.90;99.90;;;;;;5033393;28;20019;-33
2022/01/29 04:00:07;;;;;;;16.83;7.55;;;8.90;99.90;;;;;;5033160;28;20565;-29
2022/01/29 04:02:32;;;;;;;16.75;7.30;;;9.00;99.90;;;;;;5033591;28;20493;-29
2022/01/29 04:04:58;;;;;;;17.70;7.68;;;9.00;99.90;;;;;;5033184;28;20026;-33
2022/01/29 04:07:23;;;;;;;17.95;7.32;;;8.90;99.90;;;;;;5033217;28;20029;-36
2022/01/29 04:09:51;;;;;;;13.65;7.20;;;8.90;99.90;;;;;;5033118;28;20116;-29
2022/01/29 04:12:17;;;;;;;18.05;7.72;;;8.90;99.90;;;;;;5033125;28;20076;-35
2022/01/29 04:14:43;;;;;;;18.83;6.70;;;9.00;99.90;;;;;;5033265;28;20386;-32
2022/01/29 04:17:12;;;;;;;15.73;6.75;;;9.00;99.90;;;;;;5033251;28;20022;-34
2022/01/29 04:19:39;;;;;;;16.83;6.65;;;9.00;99.90;;;;;;5033065;28;20031;-36
2022/01/29 04:22:06;;;;;;;15.50;6.72;;;9.00;99.90;;;;;;5032984;28;20025;-31
2022/01/29 04:24:33;;;;;;;17.88;6.57;;;9.10;99.90;;;;;;5032961;28;20053;-43
2022/01/29 04:27:00;;;;;;;20.08;6.75;;;9.10;99.90;;;;;;5033166;28;20033;-36
2022/01/29 04:29:29;;;;;;;11.65;6.47;;;9.10;99.90;;;;;;5032781;28;20018;-36
2022/01/29 04:34:21;;;;;;;14.63;6.22;;;9.20;99.90;;;;;;5033026;28;20385;-31
2022/01/29 04:36:47;;;;;;;19.83;7.82;;;9.20;99.90;;;;;;5032739;28;20029;-35
2022/01/29 04:39:13;;;;;;;22.27;6.93;;;9.20;99.90;;;;;;5032787;28;20030;-32
2022/01/29 04:41:39;;;;;;;24.70;7.63;;;9.20;99.90;;;;;;5032734;28;20080;-37
2022/01/29 04:44:04;;;;;;;13.07;6.22;;;9.20;99.90;;;;;;5032983;28;20021;-33
2022/01/29 04:46:30;;;;;;;12.05;6.13;;;9.20;99.90;;;;;;5032535;28;20494;-36
2022/01/29 04:48:56;;;;;;;17.27;6.35;;;9.30;99.90;;;;;;5032539;28;20071;-35
2022/01/29 04:51:22;;;;;;;10.18;5.47;;;9.30;99.90;;;;;;5032863;28;20026;-38
2022/01/29 04:53:48;;;;;;;18.05;6.72;;;9.30;99.90;;;;;;5032771;28;20026;-33
2022/01/29 04:56:14;;;;;;;14.63;5.63;;;9.30;99.90;;;;;;5032586;28;20021;-32
2022/01/29 04:58:40;;;;;;;18.45;6.30;;;9.30;99.90;;;;;;5032741;28;20085;-33
2022/01/29 05:01:06;;;;;;;10.20;4.97;;;9.30;99.90;;;;;;5032398;28;20037;-32
2022/01/29 05:03:32;;;;;;;14.38;5.82;;;9.30;99.90;;;;;;5035996;28;20075;-34
2022/01/29 05:05:58;;;;;;;19.13;6.18;;;9.40;99.90;;;;;;5036573;28;20022;-29
2022/01/29 05:08:24;;;;;;;11.05;5.47;;;9.40;99.90;;;;;;5036790;28;20029;-31
2022/01/29 05:10:50;;;;;;;16.70;5.97;;;9.40;99.90;;;;;;5036513;28;20359;-29
2022/01/29 05:13:21;;;;;;;6.78;5.05;;;9.40;99.90;;;;;;5036755;28;20466;-34
2022/01/29 05:16:30;;;;;;;15.63;5.65;;;9.40;99.90;;;;;;5036668;28;20037;-32
2022/01/29 05:27:01;;;;;;;11.38;6.50;;;9.60;99.90;;;;;;5036445;28;20147;-33
2022/01/29 05:29:30;;;;;;;30.80;6.63;;;9.60;99.90;;;;;;5036323;28;20096;-31
2022/01/29 05:31:56;;;;;;;11.85;5.63;;;9.60;99.90;;;;;;5036110;28;20021;-38
2022/01/29 05:34:22;;;;;;;13.07;5.68;;;9.60;99.90;;;;;;5035982;28;20441;-31
2022/01/29 05:36:48;;;;;;;12.90;5.43;;;9.60;99.90;;;;;;5034696;28;20029;-31
2022/01/29 05:39:14;;;;;;;10.93;5.30;;;9.50;99.90;;;;;;5035933;28;20022;-33
2022/01/29 05:41:40;;;;;;;18.05;5.32;;;9.60;99.90;;;;;;5036184;28;20531;-32
2022/01/29 05:44:06;;;;;;;16.40;7.03;;;9.60;99.90;;;;;;5035848;28;20067;-35
2022/01/29 05:46:31;;;;;;;12.82;6.05;;;9.60;99.90;;;;;;5036176;28;20026;-33
2022/01/29 05:48:57;;;;;;;11.95;5.40;;;9.60;99.90;;;;;;5035697;28;20361;-33
2022/01/29 05:51:23;;;;;;;16.23;5.45;;;9.60;99.90;;;;;;5035701;28;20108;-37
2022/01/29 05:53:48;;;;;;;9.98;6.30;;;9.60;99.90;;;;;;5035723;28;20029;-36
2022/01/29 05:56:14;;;;;;;13.90;6.82;;;9.60;99.90;;;;;;5035535;28;20497;-36
2022/01/29 05:58:39;;;;;;;13.75;5.68;;;9.50;99.90;;;;;;5035628;28;20013;-38
2022/01/29 06:01:05;;;;;;;12.10;5.78;;;9.50;99.90;;;;;;5033974;28;20048;-35
2022/01/29 06:03:31;;;;;;;16.23;5.65;;;9.50;99.90;;;;;;5035358;28;20390;-35
2022/01/29 06:05:57;;;;;;;10.15;4.88;;;9.50;99.90;;;;;;5035501;28;20036;-32
2022/01/29 06:08:22;;;;;;;17.00;5.50;;;9.50;99.90;;;;;;5035360;28;20017;-30
2022/01/29 06:10:48;;;;;;;9.90;5.03;;;9.50;99.90;;;;;;5035396;28;20033;-34
2022/01/29 06:13:16;;;;;;;8.52;5.10;;;9.40;99.90;;;;;;5034733;28;20101;-37
2022/01/29 06:15:45;;;;;;;11.95;5.22;;;9.40;99.90;;;;;;5035467;28;20030;-34
2022/01/29 06:18:14;;;;;;;21.85;6.95;;;9.40;99.90;;;;;;5035600;28;20021;-29
2022/01/29 06:20:44;;;;;;;21.45;6.57;;;9.30;99.90;;;;;;5035450;28;20028;-33
2022/01/29 06:23:11;;;;;;;14.13;5.97;;;9.40;99.90;;;;;;5035080;28;20024;-30
2022/01/29 06:25:37;;;;;;;16.15;5.90;;;9.40;99.90;;;;;;5035288;28;20025;-47
2022/01/29 06:28:03;;;;;;;19.35;5.95;;;9.40;99.90;;;;;;5035035;28;20022;-33
2022/01/29 06:30:29;;;;;;;19.52;6.65;;;9.40;99.90;;;;;;5035273;28;20044;-33
2022/01/29 06:32:55;;;;;;;12.20;6.53;;;9.50;99.90;;;;;;5034916;28;20021;-35
2022/01/29 06:35:20;;;;;;;20.58;6.85;;;9.40;99.90;;;;;;5034854;28;20034;-31
2022/01/29 06:37:46;;;;;;;16.85;5.93;;;9.40;99.90;;;;;;5034864;28;20148;-34
2022/01/29 06:40:12;;;;;;;14.15;5.97;;;9.40;99.90;;;;;;5034831;28;20100;-34
2022/01/29 06:42:38;;;;;;;21.00;7.00;;;9.40;99.90;;;;;;5035083;28;20413;-33
2022/01/29 06:45:04;;;;;;;17.70;6.28;;;9.40;99.90;;;;;;5034751;28;20056;-34
2022/01/29 06:47:30;;;;;;;13.02;5.93;;;9.40;99.90;;;;;;5034935;28;20474;-33
2022/01/29 06:49:56;;;;;;;13.00;6.25;;;9.40;99.90;;;;;;5034795;28;20109;-33
2022/01/29 06:52:22;;;;;;;16.33;6.30;;;9.40;99.90;;;;;;5034653;28;20060;-33
2022/01/29 06:54:48;;;;;;;13.88;6.68;;;9.40;99.90;;;;;;5034476;28;20079;-33
2022/01/29 06:57:13;;;;;;;16.40;6.22;;;9.40;99.90;;;;;;5034559;28;20022;-31
2022/01/29 06:59:39;;;;;;;12.50;6.32;;;9.40;99.90;;;;;;5034240;28;20029;-38
2022/01/29 07:02:04;;;;;;;18.73;6.32;;;9.50;99.90;;;;;;5034460;28;20053;-34
2022/01/29 07:04:30;;;;;;;17.30;6.43;;;9.50;99.90;;;;;;5034361;28;20030;-33
2022/01/29 07:06:55;;;;;;;17.58;6.63;;;9.50;99.90;;;;;;5034324;28;20099;-30
2022/01/29 07:09:21;;;;;;;12.80;6.65;;;9.40;99.90;;;;;;5034220;28;20022;-41
2022/01/29 07:11:53;;;;;;;12.88;5.95;;;9.40;99.90;;;;;;5034447;28;20029;-32
2022/01/29 07:14:19;;;;;;;14.45;5.65;;;9.40;99.90;;;;;;5034100;28;20059;-30
2022/01/29 07:16:45;;;;;;;19.73;5.85;;;9.50;99.90;;;;;;5034212;28;20494;-33
2022/01/29 07:19:11;;;;;;;13.63;5.47;;;9.40;99.90;;;;;;5034100;28;20017;-34
2022/01/29 07:21:37;;;;;;;12.32;5.90;;;9.40;99.90;;;;;;5034324;28;20013;-32
2022/01/29 07:24:04;;;;;;;13.27;6.18;;;9.50;99.90;;;;;;5033743;28;20079;-32
2022/01/29 07:26:30;;;;;;;13.85;5.43;;;9.50;99.90;;;;;;5033265;28;20025;-32
2022/01/29 07:28:55;;;;;;;15.77;5.90;;;9.50;99.90;;;;;;5034024;28;20029;-33
2022/01/29 07:31:21;;;;;;;16.35;5.35;;;9.50;99.90;;;;;;5033882;28;20083;-32
2022/01/29 07:33:47;;;;;;;10.95;6.43;;;9.50;99.90;;;;;;5033794;28;20029;-34
2022/01/29 07:36:13;;;;;;;16.20;6.85;;;9.50;99.90;;;;;;5034005;28;20025;-37
2022/01/29 07:38:38;;;;;;;11.20;5.78;;;9.50;99.90;;;;;;5033714;28;20032;-34
2022/01/29 07:41:04;;;;;;;17.15;5.38;;;9.50;99.90;;;;;;5033590;28;20021;-32
2022/01/29 07:43:29;;;;;;;14.00;5.97;;;9.50;99.90;;;;;;5033632;28;20029;-31
2022/01/29 07:45:55;;;;;;;17.73;5.60;;;9.50;99.90;;;;;;5033584;28;20029;-33
2022/01/29 07:48:21;;;;;;;12.98;4.57;;;9.60;99.90;;;;;;5033749;28;20021;-37
2022/01/29 07:50:46;;;;;;;25.08;5.80;;;9.60;99.90;;;;;;5032325;28;20104;-34
2022/01/29 07:53:12;;;;;;;15.77;5.53;;;9.60;99.90;;;;;;5033464;28;20036;-40
2022/01/29 07:55:38;;;;;;;13.95;5.22;;;9.60;99.90;;;;;;5033394;28;20021;-32
2022/01/29 07:58:07;;;;;;;14.02;5.47;;;9.70;99.90;;;;;;5033407;28;20025;-36
2022/01/29 08:00:33;;;;;;;21.33;5.05;;;9.60;99.90;;;;;;5033238;28;20119;-31
2022/01/29 08:02:59;;;;;;;11.05;4.53;;;9.60;99.90;;;;;;5033305;28;20021;-35
2022/01/29 08:05:24;;;;;;;24.50;5.35;;;9.60;99.90;;;;;;5033249;28;20030;-34
2022/01/29 08:07:50;;;;;;;13.30;5.70;;;9.60;99.90;;;;;;5033506;28;20474;-39
2022/01/29 08:10:16;;;;;;;16.98;5.43;;;9.60;99.90;;;;;;5033077;28;20029;-37
2022/01/29 08:12:41;;;;;;;13.95;4.90;;;9.60;99.90;;;;;;5033367;28;20029;-31
2022/01/29 08:15:08;;;;;;;10.50;4.28;;;9.60;99.90;;;;;;5033014;28;20421;-35
2022/01/29 08:17:34;;;;;;;13.07;4.30;;;9.70;99.90;;;;;;5033313;28;20508;-36
2022/01/29 08:20:00;;;;;;;19.55;4.90;;;9.70;99.90;;;;;;5033008;28;20346;-33
2022/01/29 08:22:26;;;;;;;12.75;4.65;;;9.80;99.90;;;;;;5033194;28;20048;-33
2022/01/29 08:24:55;;;;;;;25.70;5.00;;;9.80;99.90;;;;;;5033092;28;20026;-38
2022/01/29 08:27:21;;;;;;;10.75;4.53;;;9.80;99.90;;;;;;5033486;28;20024;-34
2022/01/29 08:29:46;;;;;;;11.35;4.95;;;9.90;99.90;;;;;;5033030;28;20104;-31
2022/01/29 08:32:12;;;;;;;12.25;4.88;;;9.90;99.90;;;;;;5032959;28;20436;-37
2022/01/29 08:34:39;;;;;;;12.75;4.90;;;9.90;99.90;;;;;;5032731;28;20037;-31
2022/01/29 08:37:06;;;;;;;12.53;4.33;;;9.90;99.90;;;;;;5032870;28;20155;-38
2022/01/29 08:39:32;;;;;;;15.93;4.32;;;9.90;99.90;;;;;;5032676;28;20279;-31
2022/01/29 08:41:58;;;;;;;13.95;4.90;;;9.80;99.90;;;;;;5032640;28;20061;-37
2022/01/29 08:44:24;;;;;;;15.45;4.47;;;9.90;99.90;;;;;;5032574;28;20029;-37
2022/01/29 08:46:50;;;;;;;13.98;5.45;;;9.80;99.90;;;;;;5032922;28;20374;-35
2022/01/29 08:49:15;;;;;;;14.15;4.10;;;9.80;99.90;;;;;;5032533;28;20021;-37
2022/01/29 08:51:41;;;;;;;10.55;4.47;;;9.90;99.90;;;;;;5032579;28;20033;-36
2022/01/29 08:54:07;;;;;;;13.35;4.43;;;9.90;99.90;;;;;;5032565;28;20021;-37
2022/01/29 08:56:33;;;;;;;19.10;4.47;;;9.90;99.90;;;;;;5032576;28;20393;-38
2022/01/29 08:58:58;;;;;;;8.60;3.53;;;10.00;99.90;;;;;;5032543;28;20283;-35
2022/01/29 09:01:24;;;;;;;12.52;3.67;;;10.10;99.90;;;;;;5032295;28;20556;-32
2022/01/29 09:03:50;;;;;;;17.58;4.85;;;10.10;99.90;;;;;;5032500;28;20116;-33
2022/01/29 09:06:16;;;;;;;7.15;3.58;;;10.10;99.90;;;;;;5032416;28;20517;-36
2022/01/29 09:08:46;;;;;;;12.30;3.72;;;10.10;99.90;;;;;;5032350;28;20053;-37
2022/01/29 09:11:13;;;;;;;17.42;4.07;;;10.10;99.90;;;;;;5032668;28;20428;-34
2022/01/29 09:13:39;;;;;;;11.65;3.97;;;10.20;99.90;;;;;;5032662;28;20029;-36
2022/01/29 09:16:05;;;;;;;21.45;4.20;;;10.30;99.90;;;;;;5032688;28;20100;-32
2022/01/29 09:18:30;;;;;;;6.90;3.47;;;10.30;99.90;;;;;;5032338;28;20101;-33
2022/01/29 09:20:56;;;;;;;11.25;3.28;;;10.20;99.90;;;;;;5032288;28;20022;-34
2022/01/29 09:23:21;;;;;;;13.00;3.00;;;10.20;99.90;;;;;;5032330;28;20147;-38
2022/01/29 09:25:47;;;;;;;23.45;3.00;;;10.20;99.90;;;;;;5032554;28;20036;-37
2022/01/29 09:28:13;;;;;;;10.30;2.65;;;10.20;99.90;;;;;;5032633;28;20080;-35
2022/01/29 09:30:40;;;;;;;11.27;2.88;;;10.20;99.90;;;;;;5032179;28;20084;-38
2022/01/29 09:33:06;;;;;;;12.02;2.55;;;10.30;99.90;;;;;;5032464;28;20022;-36
2022/01/29 09:35:32;;;;;;;9.93;2.22;;;10.40;99.90;;;;;;5032049;28;20387;-32
2022/01/29 09:37:57;;;;;;;10.52;2.30;;;10.40;99.90;;;;;;5032198;28;20076;-37
2022/01/29 09:40:24;;;;;;;4.45;2.10;;;10.50;99.90;;;;;;5032098;28;20022;-37
2022/01/29 09:42:51;;;;;;;6.55;1.77;;;10.50;99.90;;;;;;5032183;28;20029;-40
2022/01/29 09:45:20;;;;;;;3.35;2.15;;;10.50;99.90;;;;;;5032349;28;20030;-34
2022/01/29 09:47:47;;;;;;;8.93;2.40;;;10.60;99.90;;;;;;5032517;28;20075;-39
2022/01/29 09:50:16;;;;;;;8.57;2.30;;;10.60;99.90;;;;;;5035663;28;20385;-45
2022/01/29 09:52:42;;;;;;;8.75;1.88;;;10.60;99.90;;;;;;5035660;28;20076;-33
2022/01/29 09:55:08;;;;;;;12.15;2.78;;;10.60;99.90;;;;;;5035508;28;20030;-34
2022/01/29 09:57:35;;;;;;;8.40;1.95;;;10.70;99.90;;;;;;5035468;28;20026;-31
2022/01/29 10:00:01;;;;;;;6.75;1.92;;;10.70;99.90;;;;;;5035359;28;20033;-29
2022/01/29 10:02:27;;;;;;;3.40;1.65;;;10.60;99.90;;;;;;5035255;28;20116;-34
2022/01/29 10:04:57;;;;;;;5.22;1.73;;;10.70;99.90;;;;;;5035680;28;20021;-31
2022/01/29 10:07:25;;;;;;;7.68;1.90;;;10.60;99.90;;;;;;5035297;28;20028;-35
2022/01/29 10:09:51;;;;;;;5.00;1.83;;;10.70;99.90;;;;;;5035654;28;20486;-34
2022/01/29 10:12:23;;;;;;;19.52;3.60;;;10.70;99.90;;;;;;5035646;28;20517;-34
2022/01/29 10:14:57;;;;;;;5.28;1.45;;;10.80;99.90;;;;;;5035470;28;20053;-35
2022/01/29 10:17:49;;;;;;;15.50;1.63;;;10.80;99.90;;;;;;5035283;28;20064;-33
2022/01/29 10:20:23;;;;;;;10.50;1.65;;;10.90;99.90;;;;;;5035548;28;20017;-33
2022/01/29 10:22:55;;;;;;;2.97;1.38;;;10.90;99.90;;;;;;5035468;28;20485;-34
2022/01/29 10:25:23;;;;;;;6.32;1.60;;;11.00;99.90;;;;;;5035150;28;20494;-40
2022/01/29 10:28:09;;;;;;;4.10;1.90;;;11.00;99.90;;;;;;5035404;28;20029;-41
2022/01/29 10:30:36;;;;;;;6.00;1.42;;;11.00;99.90;;;;;;5033756;28;20512;-34
2022/01/29 10:33:26;;;;;;;3.55;1.38;;;11.10;99.90;;;;;;5035009;28;20536;-35
2022/01/29 10:36:00;;;;;;;8.70;2.22;;;11.00;99.90;;;;;;5034886;28;20037;-31
2022/01/29 10:38:29;;;;;;;4.13;1.30;;;11.10;99.90;;;;;;5033230;28;20523;-30
2022/01/29 10:41:14;;;;;;;3.60;1.20;;;11.20;99.90;;;;;;5034802;28;20024;-33
2022/01/29 10:44:24;;;;;;;4.85;1.15;;;11.30;99.90;;;;;;5034720;28;20041;-37
2022/01/29 10:46:53;;;;;;;15.25;1.77;;;11.20;99.90;;;;;;5034638;28;20026;-36
2022/01/29 10:49:28;;;;;;;2.65;1.10;;;11.40;99.90;;;;;;5034662;28;20022;-35
2022/01/29 10:52:02;;;;;;;9.82;1.00;;;11.40;99.90;;;;;;5034608;28;20068;-35
2022/01/29 10:54:29;;;;;;;10.40;1.33;;;11.60;99.90;;;;;;5034452;28;20542;-33
2022/01/29 10:57:15;;;;;;;6.65;1.50;;;11.60;99.90;;;;;;5034882;28;20029;-37
2022/01/29 10:59:52;;;;;;;7.35;1.10;;;11.70;99.90;;;;;;5034677;28;20409;-35
2022/01/29 11:02:21;;;;;;;9.18;1.10;;;11.70;99.90;;;;;;5034026;28;20046;-35
2022/01/29 11:04:48;;;;;;;2.13;0.85;;;11.70;99.90;;;;;;5034647;28;20489;-33
2022/01/29 11:07:19;;;;;;;4.53;1.00;;;11.70;99.90;;;;;;5034666;28;20025;-33
2022/01/29 11:09:50;;;;;;;3.03;1.08;;;11.70;99.90;;;;;;5034859;28;20051;-32
2022/01/29 11:12:23;;;;;;;13.90;3.03;;;11.90;99.90;;;;;;5034828;28;20057;-36
2022/01/29 11:14:51;;;;;;;3.90;0.93;;;11.80;99.90;;;;;;5034184;28;20142;-30
2022/01/29 11:17:18;;;;;;;6.60;1.42;;;11.70;99.90;;;;;;5034420;28;20051;-38
2022/01/29 11:19:46;;;;;;;6.10;1.05;;;11.60;99.90;;;;;;5034138;28;20478;-36
2022/01/29 11:22:12;;;;;;;5.13;0.80;;;11.60;99.90;;;;;;5033947;28;20442;-34
2022/01/29 11:24:42;;;;;;;2.47;0.82;;;11.60;99.90;;;;;;5034098;28;20108;-35
2022/01/29 11:27:24;;;;;;;3.97;1.08;;;11.60;99.90;;;;;;5033723;28;20440;-34
2022/01/29 11:30:08;;;;;;;6.38;1.65;;;11.60;99.90;;;;;;5032713;28;20030;-35
2022/01/29 11:32:35;;;;;;;11.02;1.08;;;11.60;99.90;;;;;;5033756;28;20030;-36
2022/01/29 11:35:17;;;;;;;9.63;0.95;;;11.60;99.90;;;;;;5034060;28;20404;-36
2022/01/29 11:38:05;;;;;;;2.90;1.33;;;11.70;99.90;;;;;;5041286;28;20034;-32
2022/01/29 11:40:36;;;;;;;0.60;0.60;;;11.70;99.90;;;;;;5033644;28;20516;-36
2022/01/29 11:43:08;;;;;;;7.75;1.38;;;11.80;99.90;;;;;;5033535;28;20110;-30
2022/01/29 11:45:44;;;;;;;6.53;1.73;;;11.60;99.90;;;;;;5033609;28;20029;-36
2022/01/29 11:48:29;;;;;;;7.70;1.63;;;11.60;99.90;;;;;;5033616;28;20062;-34
2022/01/29 11:50:59;;;;;;;5.40;1.25;;;11.80;99.90;;;;;;5033118;28;20068;-36
2022/01/29 11:53:26;;;;;;;4.20;1.33;;;11.90;99.90;;;;;;5033232;28;20086;-42
2022/01/29 11:55:53;;;;;;;3.03;1.17;;;11.90;99.90;;;;;;5033218;28;20033;-35
2022/01/29 11:58:29;;;;;;;7.10;1.08;;;11.90;99.90;;;;;;5033263;28;20394;-32
2022/01/29 12:01:02;;;;;;;2.77;1.87;;;11.90;99.90;;;;;;5033506;28;20065;-37
2022/01/29 12:03:38;;;;;;;5.63;1.95;;;11.90;99.90;;;;;;5032885;28;20100;-34
2022/01/29 12:06:40;;;;;;;7.88;1.13;;;11.80;99.90;;;;;;5033529;28;20045;-33
2022/01/29 12:09:12;;;;;;;2.10;1.17;;;12.00;99.90;;;;;;5033124;28;20405;-35
2022/01/29 12:11:41;;;;;;;5.40;1.02;;;12.00;99.90;;;;;;5032981;28;20051;-37
2022/01/29 12:14:13;;;;;;;2.67;1.20;;;12.10;99.90;;;;;;5033007;28;20025;-38
2022/01/29 12:16:55;;;;;;;3.40;0.98;;;12.10;99.90;;;;;;5033279;28;20056;-34
2022/01/29 12:19:33;;;;;;;6.68;1.83;;;12.10;99.90;;;;;;5033315;28;20033;-32
2022/01/29 12:22:19;;;;;;;3.80;1.65;;;12.10;99.90;;;;;;5033392;28;20034;-32
2022/01/29 12:25:08;;;;;;;5.20;1.65;;;12.20;99.90;;;;;;5032848;28;20045;-33
2022/01/29 12:27:53;;;;;;;11.25;2.03;;;12.30;99.90;;;;;;5033019;28;20454;-32
2022/01/29 12:30:21;;;;;;;3.85;1.10;;;12.30;99.90;;;;;;5032948;28;20059;-34
2022/01/29 12:33:14;;;;;;;4.85;1.00;;;12.30;99.90;;;;;;5032907;28;20112;-35
2022/01/29 12:35:49;;;;;;;7.82;1.25;;;12.60;99.90;;;;;;5033016;28;20037;-34
2022/01/29 12:38:23;;;;;;;2.10;1.77;;;12.70;99.90;;;;;;5032756;28;20029;-40
2022/01/29 12:40:51;;;;;;;6.50;0.90;;;12.50;99.90;;;;;;5032744;28;20029;-38
2022/01/29 12:43:21;;;;;;;4.25;1.00;;;12.40;99.90;;;;;;5032790;28;20551;-32
2022/01/29 12:45:48;;;;;;;17.92;2.10;;;12.40;99.90;;;;;;5032734;28;20060;-33
2022/01/29 12:48:14;;;;;;;3.45;0.73;;;12.40;99.90;;;;;;5032646;28;20032;-33
2022/01/29 12:50:41;;;;;;;3.97;1.27;;;12.40;99.90;;;;;;5032621;28;20033;-33
2022/01/29 12:53:09;;;;;;;9.18;1.50;;;12.20;99.90;;;;;;5032436;28;20021;-34
2022/01/29 12:55:35;;;;;;;5.57;1.13;;;12.10;99.90;;;;;;5032736;28;20373;-44
2022/01/29 12:58:01;;;;;;;9.48;2.95;;;12.20;99.90;;;;;;5032429;28;20037;-36
2022/01/29 13:00:27;;;;;;;7.28;1.67;;;12.30;99.90;;;;;;5032465;28;20474;-34
2022/01/29 13:03:01;;;;;;;3.88;1.10;;;12.40;99.90;;;;;;5032509;28;20045;-34